Terminal Aerodrome Forecast
Issued by NWS

Home | Current Version | Previous Version | Text Only | Print | Product List | Glossary On
Versions: 1 2 3 4 5 6 7 8 9 10 11 12 13 14 15 16 17
573
FTUS46 KLOX 282331
TAFBUR
TAF
KBUR 282331Z 2900/2924 17012KT P6SM SCT080
     FM290300 15006KT P6SM SKC
     FM291300 15006KT P6SM OVC012
     FM291800 17009KT P6SM SCT018
     FM292000 17012KT P6SM SKC=

USA.gov is the U.S. government's official web portal to all federal, state and local government web resources and services.